Time;durP1;ratioP1;P1;durP2;ratioP2;P2;SDS_P1;SDS_P2;PMS_P1;PMS_P2;Temp;Humidity;BMP_temperature;BMP_pressure;BME280_temperature;BME280_humidity;BME280_pressure;Samples;Min_cycle;Max_cycle;Signal;HPM_P1;HPM_P2
2021/09/26 00:01:46;;;;;;;;;;;21.30;48.30;;;;;;8395883;28;19939;-48
2021/09/26 00:05:47;;;;;;;;;;;21.30;48.30;;;;;;8396083;28;19927;-50
2021/09/26 00:09:47;;;;;;;;;;;21.30;48.30;;;;;;8396221;28;19979;-52
2021/09/26 00:13:48;;;;;;;;;;;21.30;48.30;;;;;;8396253;28;19917;-51
2021/09/26 00:17:49;;;;;;;;;;;21.30;48.30;;;;;;8396180;28;20348;-50
2021/09/26 00:21:50;;;;;;;;;;;21.30;48.40;;;;;;8395984;28;20293;-50
2021/09/26 00:25:51;;;;;;;;;;;21.30;48.40;;;;;;8399808;28;20304;-47
2021/09/26 00:29:52;;;;;;;;;;;21.30;48.40;;;;;;8403408;28;19927;-48
2021/09/26 00:33:52;;;;;;;;;;;21.30;48.40;;;;;;8402210;28;20385;-48
2021/09/26 00:37:53;;;;;;;;;;;21.30;48.40;;;;;;8401588;28;20433;-47
2021/09/26 00:41:53;;;;;;;;;;;21.30;48.30;;;;;;8401877;28;19920;-47
2021/09/26 00:45:54;;;;;;;;;;;21.30;48.40;;;;;;8402549;28;19923;-47
2021/09/26 00:49:55;;;;;;;;;;;21.30;48.40;;;;;;8401342;28;19929;-47
2021/09/26 00:53:55;;;;;;;;;;;21.30;48.40;;;;;;8401632;28;20361;-47
2021/09/26 00:57:56;;;;;;;;;;;21.30;48.40;;;;;;8401483;28;19913;-48
2021/09/26 01:01:57;;;;;;;;;;;21.20;48.40;;;;;;8400946;28;19917;-47
2021/09/26 01:06:16;;;;;;;;;;;21.30;48.40;;;;;;8401983;28;19924;-47
2021/09/26 01:10:22;;;;;;;;;;;21.30;48.50;;;;;;8381647;28;19932;-47
2021/09/26 01:14:34;;;;;;;;;;;21.30;48.50;;;;;;8368060;28;20515;-48
2021/09/26 01:19:02;;;;;;;;;;;21.20;48.40;;;;;;8367765;28;20008;-47
2021/09/26 01:23:05;;;;;;;;;;;21.20;48.40;;;;;;8344155;28;19924;-48
2021/09/26 01:27:14;;;;;;;;;;;21.20;48.50;;;;;;8378910;28;19917;-48
2021/09/26 01:31:16;;;;;;;;;;;21.20;48.40;;;;;;8371087;28;19925;-47
2021/09/26 01:35:18;;;;;;;;;;;21.20;48.50;;;;;;8367172;28;19924;-47
2021/09/26 01:39:21;;;;;;;;;;;21.20;48.50;;;;;;8367080;28;20453;-48
2021/09/26 01:43:25;;;;;;;;;;;21.20;48.50;;;;;;8367219;28;19913;-48
2021/09/26 01:47:28;;;;;;;;;;;21.20;48.50;;;;;;8400639;28;19913;-48
2021/09/26 01:51:33;;;;;;;;;;;21.20;48.50;;;;;;8399862;28;19925;-47
2021/09/26 01:55:33;;;;;;;;;;;21.20;48.50;;;;;;8399324;28;19916;-47
2021/09/26 01:59:34;;;;;;;;;;;21.20;48.50;;;;;;8399632;28;20370;-47
2021/09/26 02:03:36;;;;;;;;;;;21.20;48.50;;;;;;8400181;28;19916;-47
2021/09/26 02:07:39;;;;;;;;;;;21.20;48.50;;;;;;8398875;28;19916;-54
2021/09/26 02:11:40;;;;;;;;;;;21.20;48.60;;;;;;8399431;28;19931;-53
2021/09/26 02:15:43;;;;;;;;;;;21.20;48.50;;;;;;8398952;28;20353;-51
2021/09/26 02:19:44;;;;;;;;;;;21.20;48.50;;;;;;8399400;28;20413;-47
2021/09/26 02:23:44;;;;;;;;;;;21.20;48.60;;;;;;8398646;28;19959;-48
2021/09/26 02:27:46;;;;;;;;;;;21.20;48.60;;;;;;8398558;28;19916;-47
2021/09/26 02:31:46;;;;;;;;;;;21.20;48.60;;;;;;8398041;28;20288;-47
2021/09/26 02:35:47;;;;;;;;;;;21.20;48.60;;;;;;8398820;28;19920;-48
2021/09/26 02:39:48;;;;;;;;;;;21.10;48.50;;;;;;8398940;28;19991;-49
2021/09/26 02:44:01;;;;;;;;;;;21.20;48.60;;;;;;8397798;28;19961;-47
2021/09/26 02:48:18;;;;;;;;;;;21.20;48.60;;;;;;8397688;28;19955;-47
2021/09/26 02:52:20;;;;;;;;;;;21.10;48.60;;;;;;8397373;28;19927;-49
2021/09/26 02:56:21;;;;;;;;;;;21.10;48.60;;;;;;8397939;28;19919;-50
2021/09/26 03:00:28;;;;;;;;;;;21.10;48.60;;;;;;8398496;28;19917;-48
2021/09/26 03:04:29;;;;;;;;;;;21.10;48.60;;;;;;8397164;28;20015;-49
2021/09/26 03:08:29;;;;;;;;;;;21.10;48.70;;;;;;8397392;28;19924;-49
2021/09/26 03:12:30;;;;;;;;;;;21.10;48.70;;;;;;8395956;28;19927;-48
2021/09/26 03:16:30;;;;;;;;;;;21.10;48.70;;;;;;8396369;28;19999;-47
2021/09/26 03:20:31;;;;;;;;;;;21.20;48.80;;;;;;8395938;28;20174;-48
2021/09/26 03:24:32;;;;;;;;;;;21.10;48.60;;;;;;8395704;28;20389;-47
2021/09/26 03:28:33;;;;;;;;;;;21.20;48.70;;;;;;8394999;28;19963;-48
2021/09/26 03:32:33;;;;;;;;;;;21.10;48.70;;;;;;8396111;28;19992;-48
2021/09/26 03:36:33;;;;;;;;;;;21.20;48.70;;;;;;8395752;28;19954;-49
2021/09/26 03:40:34;;;;;;;;;;;21.10;48.60;;;;;;8394961;28;19917;-47
2021/09/26 03:44:34;;;;;;;;;;;21.10;48.60;;;;;;8395225;28;19917;-48
2021/09/26 03:48:35;;;;;;;;;;;21.20;48.70;;;;;;8394997;28;19924;-48
2021/09/26 03:52:35;;;;;;;;;;;21.10;48.60;;;;;;8395349;28;19913;-47
2021/09/26 03:56:36;;;;;;;;;;;21.10;48.50;;;;;;8394801;28;19920;-52
2021/09/26 04:00:36;;;;;;;;;;;21.10;48.60;;;;;;8393491;28;19916;-48
2021/09/26 04:04:37;;;;;;;;;;;21.20;48.60;;;;;;8394409;28;19920;-48
2021/09/26 04:08:38;;;;;;;;;;;21.10;48.60;;;;;;8328469;28;1758601;-48
2021/09/26 04:12:40;;;;;;;;;;;21.10;48.50;;;;;;8363145;28;20366;-48
2021/09/26 04:16:41;;;;;;;;;;;21.20;48.60;;;;;;8362428;28;19994;-48
2021/09/26 04:20:41;;;;;;;;;;;21.20;48.60;;;;;;8362716;28;19917;-50
2021/09/26 04:24:41;;;;;;;;;;;21.10;48.60;;;;;;8362750;28;19936;-51
2021/09/26 04:28:42;;;;;;;;;;;21.10;48.60;;;;;;8363078;28;20333;-49
2021/09/26 04:32:43;;;;;;;;;;;21.10;48.60;;;;;;8362540;28;20045;-48
2021/09/26 04:36:43;;;;;;;;;;;21.10;48.70;;;;;;8362798;28;19966;-48
2021/09/26 04:40:44;;;;;;;;;;;21.10;48.70;;;;;;8361992;28;20412;-49
2021/09/26 04:44:44;;;;;;;;;;;21.10;48.70;;;;;;8363561;28;19917;-49
2021/09/26 04:48:44;;;;;;;;;;;21.10;48.70;;;;;;8362220;28;19925;-49
2021/09/26 04:52:45;;;;;;;;;;;21.10;48.70;;;;;;8361820;28;20288;-48
2021/09/26 04:56:45;;;;;;;;;;;21.10;49.20;;;;;;8362340;28;19917;-48
2021/09/26 05:00:50;;;;;;;;;;;21.10;48.80;;;;;;8362975;28;19913;-51
2021/09/26 05:04:51;;;;;;;;;;;21.10;48.70;;;;;;8361728;28;20441;-49
2021/09/26 05:08:51;;;;;;;;;;;21.10;48.70;;;;;;8361823;28;19925;-52
2021/09/26 05:12:51;;;;;;;;;;;21.10;48.80;;;;;;8367816;28;19917;-49
2021/09/26 05:16:52;;;;;;;;;;;21.10;48.80;;;;;;8367352;28;19958;-49
2021/09/26 05:20:54;;;;;;;;;;;21.10;49.30;;;;;;8368321;28;19944;-52
2021/09/26 05:24:54;;;;;;;;;;;21.10;48.70;;;;;;8367700;28;20023;-49
2021/09/26 05:28:55;;;;;;;;;;;21.10;48.70;;;;;;8367013;28;19932;-49
2021/09/26 05:32:55;;;;;;;;;;;21.10;48.70;;;;;;8367419;28;19917;-50
2021/09/26 05:36:56;;;;;;;;;;;21.10;48.70;;;;;;8367941;28;20389;-50
2021/09/26 05:40:57;;;;;;;;;;;21.10;48.70;;;;;;8366632;28;20358;-49
2021/09/26 05:44:57;;;;;;;;;;;21.10;48.70;;;;;;8367078;28;19917;-49
2021/09/26 05:48:58;;;;;;;;;;;21.10;48.70;;;;;;8366824;28;20007;-49
2021/09/26 05:52:58;;;;;;;;;;;21.10;48.80;;;;;;8367184;28;20007;-48
2021/09/26 05:56:59;;;;;;;;;;;21.10;48.80;;;;;;8400056;28;19917;-49
2021/09/26 06:00:59;;;;;;;;;;;21.10;48.80;;;;;;8399503;28;19913;-48
2021/09/26 06:05:00;;;;;;;;;;;21.10;48.80;;;;;;8399026;28;20271;-49
2021/09/26 06:09:00;;;;;;;;;;;21.10;48.80;;;;;;8399004;28;20285;-52
2021/09/26 06:13:01;;;;;;;;;;;21.10;48.80;;;;;;8400046;28;19922;-49
2021/09/26 06:17:01;;;;;;;;;;;21.10;49.30;;;;;;8398895;28;20009;-49
2021/09/26 06:21:02;;;;;;;;;;;21.10;48.80;;;;;;8398246;28;20514;-48
2021/09/26 06:25:03;;;;;;;;;;;21.10;48.80;;;;;;8398633;28;19923;-52
2021/09/26 06:29:04;;;;;;;;;;;21.10;48.90;;;;;;8399391;28;20296;-50
2021/09/26 06:33:05;;;;;;;;;;;21.10;48.80;;;;;;8398844;28;19917;-50
2021/09/26 06:37:06;;;;;;;;;;;21.10;48.90;;;;;;8398052;28;19917;-51
2021/09/26 06:41:06;;;;;;;;;;;21.10;49.00;;;;;;8387300;28;19916;-50
2021/09/26 06:45:07;;;;;;;;;;;21.00;49.00;;;;;;8365178;28;19936;-51
2021/09/26 06:49:08;;;;;;;;;;;21.10;49.10;;;;;;8365150;28;19921;-49
2021/09/26 06:53:08;;;;;;;;;;;21.10;49.00;;;;;;8364745;28;19924;-51
2021/09/26 06:57:09;;;;;;;;;;;21.00;49.00;;;;;;8364994;28;20407;-49
2021/09/26 07:01:11;;;;;;;;;;;21.00;49.00;;;;;;8363525;28;19924;-49
2021/09/26 07:05:11;;;;;;;;;;;21.00;49.00;;;;;;8365284;28;19913;-50
2021/09/26 07:09:12;;;;;;;;;;;21.00;49.00;;;;;;8364242;28;20374;-49
2021/09/26 07:13:12;;;;;;;;;;;21.10;49.10;;;;;;8363762;28;19916;-49
2021/09/26 07:17:13;;;;;;;;;;;21.10;49.10;;;;;;8364320;28;20012;-53
2021/09/26 07:21:15;;;;;;;;;;;21.00;49.10;;;;;;8364779;28;19917;-51
2021/09/26 07:25:15;;;;;;;;;;;21.00;49.00;;;;;;8363336;28;19920;-53
2021/09/26 07:29:16;;;;;;;;;;;21.00;49.10;;;;;;8363898;28;20002;-51
2021/09/26 07:33:16;;;;;;;;;;;21.00;49.10;;;;;;8363614;28;20345;-50
2021/09/26 07:37:17;;;;;;;;;;;21.10;49.10;;;;;;8363008;28;19917;-54
2021/09/26 07:41:18;;;;;;;;;;;21.00;49.10;;;;;;8364512;28;19941;-49
2021/09/26 07:45:18;;;;;;;;;;;21.00;49.10;;;;;;8363486;28;20308;-49
2021/09/26 07:49:19;;;;;;;;;;;21.10;49.20;;;;;;8362817;28;19968;-49
2021/09/26 07:53:19;;;;;;;;;;;21.10;49.20;;;;;;8363204;28;19960;-49
2021/09/26 07:57:20;;;;;;;;;;;21.00;49.10;;;;;;8364133;28;20289;-50
2021/09/26 08:01:20;;;;;;;;;;;21.00;49.10;;;;;;8362804;28;19917;-50
2021/09/26 08:05:21;;;;;;;;;;;21.10;49.20;;;;;;8362919;28;19923;-50
2021/09/26 08:09:21;;;;;;;;;;;21.00;49.10;;;;;;8362923;28;19932;-52
2021/09/26 08:13:22;;;;;;;;;;;21.10;49.20;;;;;;8363318;28;20399;-50
2021/09/26 08:17:22;;;;;;;;;;;21.00;49.20;;;;;;8362880;28;20369;-49
2021/09/26 08:21:23;;;;;;;;;;;21.00;49.20;;;;;;8363123;28;19924;-48
2021/09/26 08:25:23;;;;;;;;;;;21.00;49.20;;;;;;8362255;28;19932;-48
2021/09/26 08:29:24;;;;;;;;;;;21.10;49.30;;;;;;8362911;28;19945;-49
2021/09/26 08:33:24;;;;;;;;;;;21.10;49.30;;;;;;8363489;28;19919;-49
2021/09/26 08:37:25;;;;;;;;;;;21.00;49.20;;;;;;8362283;28;19952;-49
2021/09/26 08:41:26;;;;;;;;;;;21.00;49.10;;;;;;8362442;28;20031;-51
2021/09/26 08:45:28;;;;;;;;;;;21.00;49.20;;;;;;8364456;28;19916;-51
2021/09/26 08:49:30;;;;;;;;;;;21.10;49.20;;;;;;8369079;28;19921;-50
2021/09/26 08:53:31;;;;;;;;;;;21.00;49.20;;;;;;8368941;28;19917;-49
2021/09/26 08:57:31;;;;;;;;;;;21.10;49.30;;;;;;8368500;28;20380;-49
2021/09/26 09:01:31;;;;;;;;;;;21.10;49.30;;;;;;8368040;28;19924;-49
2021/09/26 09:05:33;;;;;;;;;;;21.00;49.30;;;;;;8368852;28;20394;-50
2021/09/26 09:09:47;;;;;;;;;;;21.00;49.30;;;;;;8369083;28;19928;-49
2021/09/26 09:13:57;;;;;;;;;;;21.10;49.40;;;;;;8367697;28;19917;-49
2021/09/26 09:18:02;;;;;;;;;;;21.10;49.40;;;;;;8368081;28;20404;-49
2021/09/26 09:22:04;;;;;;;;;;;21.10;49.50;;;;;;8367885;28;19924;-49
2021/09/26 09:26:04;;;;;;;;;;;21.10;49.50;;;;;;8368299;28;20331;-51
2021/09/26 09:30:05;;;;;;;;;;;21.10;49.50;;;;;;8367534;28;19925;-51
2021/09/26 09:34:07;;;;;;;;;;;21.10;50.00;;;;;;8366869;28;19921;-49
2021/09/26 09:38:08;;;;;;;;;;;21.10;49.40;;;;;;8367634;28;19963;-50
2021/09/26 09:42:15;;;;;;;;;;;21.10;49.40;;;;;;8367330;28;20433;-50
2021/09/26 09:46:30;;;;;;;;;;;21.10;49.40;;;;;;8367539;28;19992;-48
2021/09/26 09:50:39;;;;;;;;;;;21.20;49.40;;;;;;8367091;28;19944;-49
2021/09/26 09:54:40;;;;;;;;;;;21.20;49.40;;;;;;8367050;28;20409;-49
2021/09/26 09:58:42;;;;;;;;;;;21.20;49.40;;;;;;8366291;28;19967;-49
2021/09/26 10:02:42;;;;;;;;;;;21.20;49.30;;;;;;8366814;28;19936;-50
2021/09/26 10:06:46;;;;;;;;;;;21.20;49.40;;;;;;8366394;28;19913;-51
2021/09/26 10:10:46;;;;;;;;;;;21.20;49.30;;;;;;8365676;28;20286;-49
2021/09/26 10:14:49;;;;;;;;;;;21.20;49.30;;;;;;8366301;28;20003;-49
2021/09/26 10:18:50;;;;;;;;;;;21.30;49.30;;;;;;8366163;28;19958;-48
2021/09/26 10:22:50;;;;;;;;;;;21.30;49.30;;;;;;8366296;28;20366;-50
2021/09/26 10:26:51;;;;;;;;;;;21.30;49.30;;;;;;8365905;28;19924;-49
2021/09/26 10:30:52;;;;;;;;;;;21.30;49.30;;;;;;8365585;28;19921;-49
2021/09/26 10:34:53;;;;;;;;;;;21.30;49.20;;;;;;8365141;28;19917;-48
2021/09/26 10:38:55;;;;;;;;;;;21.30;49.20;;;;;;8366193;28;19924;-49
2021/09/26 10:42:55;;;;;;;;;;;21.40;49.30;;;;;;8365481;28;19928;-49
2021/09/26 10:47:05;;;;;;;;;;;21.40;49.30;;;;;;8364701;28;19917;-49
2021/09/26 10:51:06;;;;;;;;;;;21.40;49.20;;;;;;8365231;28;19982;-49
2021/09/26 10:55:29;;;;;;;;;;;21.40;49.20;;;;;;8364455;28;19971;-49
2021/09/26 10:59:36;;;;;;;;;;;21.40;49.20;;;;;;8365977;28;20293;-49
2021/09/26 11:03:39;;;;;;;;;;;21.40;49.20;;;;;;8364611;28;19925;-52
2021/09/26 11:07:46;;;;;;;;;;;21.40;49.20;;;;;;8363536;28;19923;-49
2021/09/26 11:11:47;;;;;;;;;;;21.40;49.20;;;;;;8364361;28;19932;-50
2021/09/26 11:15:57;;;;;;;;;;;21.40;49.20;;;;;;8364301;28;20093;-50
2021/09/26 11:19:57;;;;;;;;;;;21.40;49.20;;;;;;8364687;28;19945;-49
2021/09/26 11:23:59;;;;;;;;;;;21.40;49.20;;;;;;8364072;28;19916;-49
2021/09/26 11:28:19;;;;;;;;;;;21.40;49.20;;;;;;8364116;28;20407;-49
2021/09/26 11:32:22;;;;;;;;;;;21.40;49.20;;;;;;8363471;28;19932;-49
2021/09/26 11:36:24;;;;;;;;;;;21.40;49.30;;;;;;8363873;28;20301;-48
2021/09/26 11:40:44;;;;;;;;;;;21.40;49.30;;;;;;8363978;28;19944;-50
2021/09/26 11:44:48;;;;;;;;;;;21.40;49.30;;;;;;8363463;28;19923;-49
2021/09/26 11:48:49;;;;;;;;;;;21.40;49.30;;;;;;8363294;28;19933;-49
2021/09/26 11:52:49;;;;;;;;;;;21.50;49.30;;;;;;8362918;28;19940;-48
2021/09/26 11:56:49;;;;;;;;;;;21.40;49.30;;;;;;8364338;28;19920;-49
2021/09/26 12:00:50;;;;;;;;;;;21.50;49.30;;;;;;8363590;28;19924;-49
2021/09/26 12:04:50;;;;;;;;;;;21.50;49.30;;;;;;8362827;28;19924;-50
2021/09/26 12:08:51;;;;;;;;;;;21.50;49.30;;;;;;8363090;28;19986;-49
2021/09/26 12:12:51;;;;;;;;;;;21.50;49.20;;;;;;8363225;28;20008;-49
2021/09/26 12:16:52;;;;;;;;;;;21.50;49.20;;;;;;8363291;28;19920;-49
2021/09/26 12:21:05;;;;;;;;;;;21.50;49.20;;;;;;8389650;28;20001;-49
2021/09/26 12:25:08;;;;;;;;;;;21.50;49.20;;;;;;8402600;28;19956;-49
2021/09/26 12:29:13;;;;;;;;;;;21.50;49.30;;;;;;8402800;28;19977;-49
2021/09/26 12:33:27;;;;;;;;;;;21.50;49.30;;;;;;8403151;28;19952;-49
2021/09/26 12:37:29;;;;;;;;;;;21.50;49.20;;;;;;8402112;28;19948;-48
2021/09/26 12:41:31;;;;;;;;;;;21.50;49.30;;;;;;8402507;28;19924;-49
2021/09/26 12:45:34;;;;;;;;;;;21.50;49.30;;;;;;8402082;28;19917;-50
2021/09/26 12:49:36;;;;;;;;;;;21.50;49.30;;;;;;8401478;28;19929;-49
2021/09/26 12:53:41;;;;;;;;;;;21.50;49.30;;;;;;8402895;28;19912;-49
2021/09/26 12:57:42;;;;;;;;;;;21.50;49.30;;;;;;8401730;28;20003;-48
2021/09/26 13:01:42;;;;;;;;;;;21.50;49.40;;;;;;8399909;28;19917;-48
2021/09/26 13:05:53;;;;;;;;;;;21.50;49.50;;;;;;8400910;28;20399;-50
2021/09/26 13:09:56;;;;;;;;;;;21.50;49.90;;;;;;8401740;28;20039;-52
2021/09/26 13:14:01;;;;;;;;;;;21.50;49.40;;;;;;8401423;28;19917;-51
2021/09/26 13:18:13;;;;;;;;;;;21.50;49.40;;;;;;8401073;28;19917;-54
2021/09/26 13:22:16;;;;;;;;;;;21.50;49.40;;;;;;8400600;28;19913;-50
2021/09/26 13:26:16;;;;;;;;;;;21.60;49.40;;;;;;8400815;28;19913;-50
2021/09/26 13:30:17;;;;;;;;;;;21.50;49.30;;;;;;8401027;28;20358;-49
2021/09/26 13:34:25;;;;;;;;;;;21.50;49.30;;;;;;8399940;28;19925;-51
2021/09/26 13:38:27;;;;;;;;;;;21.60;49.40;;;;;;8381028;28;19917;-49
2021/09/26 13:42:32;;;;;;;;;;;21.60;49.40;;;;;;8367393;28;19920;-50
2021/09/26 13:46:33;;;;;;;;;;;21.60;49.30;;;;;;8366832;28;19916;-50
2021/09/26 13:50:34;;;;;;;;;;;21.60;49.30;;;;;;8368144;28;19951;-49
2021/09/26 13:54:34;;;;;;;;;;;21.60;49.30;;;;;;8366891;28;19924;-49
2021/09/26 13:58:35;;;;;;;;;;;21.60;49.30;;;;;;8366467;28;19917;-51
2021/09/26 14:02:37;;;;;;;;;;;21.60;49.30;;;;;;8366675;28;20273;-49
2021/09/26 14:06:38;;;;;;;;;;;21.60;49.30;;;;;;8367175;28;20447;-49
2021/09/26 14:10:38;;;;;;;;;;;21.60;49.30;;;;;;8365809;28;19932;-49
2021/09/26 14:14:39;;;;;;;;;;;21.60;49.30;;;;;;8366660;28;19963;-49
2021/09/26 14:18:39;;;;;;;;;;;21.60;49.30;;;;;;8366171;28;20373;-49
2021/09/26 14:22:40;;;;;;;;;;;21.60;49.30;;;;;;8366297;28;19979;-50
2021/09/26 14:26:40;;;;;;;;;;;21.70;49.30;;;;;;8366227;28;19920;-49
2021/09/26 14:30:41;;;;;;;;;;;21.70;49.30;;;;;;8365795;28;20400;-50
2021/09/26 14:34:41;;;;;;;;;;;21.70;49.30;;;;;;8365081;28;19962;-52
2021/09/26 14:38:42;;;;;;;;;;;21.70;49.30;;;;;;8365487;28;20335;-50
2021/09/26 14:42:45;;;;;;;;;;;21.70;49.30;;;;;;8365201;28;20373;-49
2021/09/26 14:46:45;;;;;;;;;;;21.70;49.20;;;;;;8364930;28;19924;-51
2021/09/26 14:50:46;;;;;;;;;;;21.70;49.20;;;;;;8365011;28;19925;-50
2021/09/26 14:54:47;;;;;;;;;;;21.70;49.20;;;;;;8365149;28;20373;-50
2021/09/26 14:58:48;;;;;;;;;;;21.70;49.20;;;;;;8365228;28;19978;-52
2021/09/26 15:02:49;;;;;;;;;;;21.70;49.20;;;;;;8365068;28;20095;-49
2021/09/26 15:06:49;;;;;;;;;;;21.70;49.70;;;;;;8364783;28;19925;-50
2021/09/26 15:10:49;;;;;;;;;;;21.70;49.10;;;;;;8363880;28;19978;-50
2021/09/26 15:14:50;;;;;;;;;;;21.70;49.20;;;;;;8364402;28;20318;-49
2021/09/26 15:18:50;;;;;;;;;;;21.80;49.20;;;;;;8364874;28;19916;-50
2021/09/26 15:22:51;;;;;;;;;;;21.80;49.20;;;;;;8363714;28;19956;-50
2021/09/26 15:26:51;;;;;;;;;;;21.80;49.20;;;;;;8364285;28;19936;-50
2021/09/26 15:30:52;;;;;;;;;;;21.80;49.20;;;;;;8363884;28;19978;-50
2021/09/26 15:34:52;;;;;;;;;;;21.80;49.10;;;;;;8364261;28;20343;-49
2021/09/26 15:38:53;;;;;;;;;;;21.70;49.10;;;;;;8373817;28;19962;-49
2021/09/26 15:42:53;;;;;;;;;;;21.80;49.20;;;;;;8378694;28;20293;-49
2021/09/26 15:46:54;;;;;;;;;;;21.80;49.20;;;;;;8362965;28;19928;-49
2021/09/26 15:50:55;;;;;;;;;;;21.80;49.20;;;;;;8364297;28;20061;-49
2021/09/26 15:54:55;;;;;;;;;;;21.80;49.20;;;;;;8363424;28;19999;-49
2021/09/26 15:58:56;;;;;;;;;;;21.80;49.20;;;;;;8362903;28;19924;-48
2021/09/26 16:02:57;;;;;;;;;;;21.80;49.20;;;;;;8363604;28;20305;-51
2021/09/26 16:06:58;;;;;;;;;;;21.80;49.20;;;;;;8363058;28;19921;-49
2021/09/26 16:10:58;;;;;;;;;;;21.80;49.20;;;;;;8363334;28;19924;-50
2021/09/26 16:14:58;;;;;;;;;;;21.80;49.20;;;;;;8363128;28;19924;-50
2021/09/26 16:18:59;;;;;;;;;;;21.80;49.20;;;;;;8363136;28;19913;-50
2021/09/26 16:23:00;;;;;;;;;;;21.80;49.20;;;;;;8362596;28;19916;-49
2021/09/26 16:27:00;;;;;;;;;;;21.80;49.20;;;;;;8363815;28;20050;-49
2021/09/26 16:31:02;;;;;;;;;;;21.80;49.30;;;;;;8362889;28;19936;-48
2021/09/26 16:35:04;;;;;;;;;;;21.80;49.30;;;;;;8362300;28;19970;-50
2021/09/26 16:39:04;;;;;;;;;;;21.80;49.30;;;;;;8362742;28;19976;-50
2021/09/26 16:43:06;;;;;;;;;;;21.80;49.30;;;;;;8363036;28;19921;-50
2021/09/26 16:47:06;;;;;;;;;;;21.70;49.20;;;;;;8396168;28;19917;-51
2021/09/26 16:51:08;;;;;;;;;;;21.80;49.30;;;;;;8395790;28;19977;-49
2021/09/26 16:55:09;;;;;;;;;;;21.70;49.20;;;;;;8395328;28;19912;-50
2021/09/26 16:59:10;;;;;;;;;;;21.70;49.30;;;;;;8395443;28;19921;-49
2021/09/26 17:03:11;;;;;;;;;;;21.80;49.30;;;;;;8396140;28;20015;-50
2021/09/26 17:07:14;;;;;;;;;;;21.70;49.30;;;;;;8397773;28;19916;-50
2021/09/26 17:11:15;;;;;;;;;;;21.70;49.30;;;;;;8401518;28;20381;-49
2021/09/26 17:15:16;;;;;;;;;;;21.70;49.30;;;;;;8401467;28;20007;-50
2021/09/26 17:19:19;;;;;;;;;;;21.70;49.30;;;;;;8401505;28;19939;-49
2021/09/26 17:23:20;;;;;;;;;;;21.70;49.40;;;;;;8401423;28;19921;-49
2021/09/26 17:27:20;;;;;;;;;;;21.70;49.40;;;;;;8400828;28;20003;-49
2021/09/26 17:31:21;;;;;;;;;;;21.70;49.40;;;;;;8400291;28;20276;-52
2021/09/26 17:35:22;;;;;;;;;;;21.70;49.50;;;;;;8400742;28;19916;-48
2021/09/26 17:39:23;;;;;;;;;;;21.70;49.50;;;;;;8401520;28;19916;-49
2021/09/26 17:43:25;;;;;;;;;;;21.70;49.50;;;;;;8400191;28;19935;-49
2021/09/26 17:47:25;;;;;;;;;;;21.70;49.50;;;;;;8400513;28;19939;-51
2021/09/26 17:51:27;;;;;;;;;;;21.70;49.50;;;;;;8400036;28;19927;-50
2021/09/26 17:55:28;;;;;;;;;;;21.70;49.50;;;;;;8400426;28;19917;-49
2021/09/26 17:59:29;;;;;;;;;;;21.70;49.50;;;;;;8399979;28;19917;-49
2021/09/26 18:03:30;;;;;;;;;;;21.70;49.60;;;;;;8399714;28;19920;-50
2021/09/26 18:07:30;;;;;;;;;;;21.70;49.60;;;;;;8399451;28;19939;-50
2021/09/26 18:11:32;;;;;;;;;;;21.70;49.60;;;;;;8400280;28;20355;-49
2021/09/26 18:15:34;;;;;;;;;;;21.70;49.60;;;;;;8366885;28;19924;-50
2021/09/26 18:19:34;;;;;;;;;;;21.70;49.60;;;;;;8364535;28;19924;-49
2021/09/26 18:23:36;;;;;;;;;;;21.70;49.60;;;;;;8366161;28;20307;-50
2021/09/26 18:27:36;;;;;;;;;;;21.70;49.60;;;;;;8366044;28;19923;-49
2021/09/26 18:31:37;;;;;;;;;;;21.70;49.60;;;;;;8365959;28;19929;-49
2021/09/26 18:35:37;;;;;;;;;;;21.70;49.60;;;;;;8365789;28;19999;-50
2021/09/26 18:39:38;;;;;;;;;;;21.70;49.60;;;;;;8365767;28;19917;-49
2021/09/26 18:43:39;;;;;;;;;;;21.70;49.60;;;;;;8365063;28;19967;-50
2021/09/26 18:47:39;;;;;;;;;;;21.60;49.70;;;;;;8365928;28;19920;-50
2021/09/26 18:51:40;;;;;;;;;;;21.60;49.60;;;;;;8365040;28;19929;-49
2021/09/26 18:55:41;;;;;;;;;;;21.60;49.60;;;;;;8364872;28;19921;-49
2021/09/26 18:59:41;;;;;;;;;;;21.60;49.60;;;;;;8364987;28;19913;-51
2021/09/26 19:03:41;;;;;;;;;;;21.60;49.60;;;;;;8364750;28;19917;-50
2021/09/26 19:07:42;;;;;;;;;;;21.60;49.60;;;;;;8365219;28;20452;-50
2021/09/26 19:11:42;;;;;;;;;;;21.60;49.60;;;;;;8363767;28;19925;-49
2021/09/26 19:15:44;;;;;;;;;;;21.60;49.60;;;;;;8364442;28;19967;-49
2021/09/26 19:19:44;;;;;;;;;;;21.60;49.60;;;;;;8363880;28;20316;-50
2021/09/26 19:23:45;;;;;;;;;;;21.60;49.60;;;;;;8365071;28;19916;-50
2021/09/26 19:27:46;;;;;;;;;;;21.60;49.60;;;;;;8364064;28;19920;-50
2021/09/26 19:31:47;;;;;;;;;;;21.60;49.60;;;;;;8362997;28;19925;-49
2021/09/26 19:35:48;;;;;;;;;;;21.60;49.70;;;;;;8363740;28;19913;-49
2021/09/26 19:39:48;;;;;;;;;;;21.60;49.70;;;;;;8364339;28;19916;-49
2021/09/26 19:43:51;;;;;;;;;;;21.60;49.60;;;;;;8363021;28;19939;-53
2021/09/26 19:47:51;;;;;;;;;;;21.60;49.70;;;;;;8363559;28;19921;-52
2021/09/26 19:51:51;;;;;;;;;;;21.60;49.70;;;;;;8363388;28;19982;-54
2021/09/26 19:55:52;;;;;;;;;;;21.60;49.70;;;;;;8362964;28;19924;-52
2021/09/26 19:59:53;;;;;;;;;;;21.60;49.70;;;;;;8364056;28;19912;-50
2021/09/26 20:03:55;;;;;;;;;;;21.60;49.60;;;;;;8363145;28;20042;-50
2021/09/26 20:07:58;;;;;;;;;;;21.60;49.70;;;;;;8362678;28;20273;-50
2021/09/26 20:11:58;;;;;;;;;;;21.60;49.70;;;;;;8363332;28;20396;-52
2021/09/26 20:15:59;;;;;;;;;;;21.60;49.60;;;;;;8363810;28;19913;-50
2021/09/26 20:19:59;;;;;;;;;;;21.50;49.60;;;;;;8362556;28;20008;-49
2021/09/26 20:24:00;;;;;;;;;;;21.60;49.60;;;;;;8361604;28;19969;-50
2021/09/26 20:28:01;;;;;;;;;;;21.60;50.10;;;;;;8362974;28;19917;-49
2021/09/26 20:32:01;;;;;;;;;;;21.50;49.60;;;;;;8362717;28;19925;-49
2021/09/26 20:36:02;;;;;;;;;;;21.60;49.60;;;;;;8363097;28;19917;-51
2021/09/26 20:40:03;;;;;;;;;;;21.50;49.60;;;;;;8362629;28;20013;-49
2021/09/26 20:44:04;;;;;;;;;;;21.60;50.10;;;;;;8368438;28;19917;-49
2021/09/26 20:48:06;;;;;;;;;;;21.60;49.60;;;;;;8369025;28;20440;-49
2021/09/26 20:52:06;;;;;;;;;;;21.60;50.10;;;;;;8369345;28;19924;-50
2021/09/26 20:56:07;;;;;;;;;;;21.60;49.60;;;;;;8368592;28;19924;-49
2021/09/26 21:00:08;;;;;;;;;;;21.50;50.10;;;;;;8368698;28;19948;-51
2021/09/26 21:04:09;;;;;;;;;;;21.50;49.60;;;;;;8368298;28;19920;-49
2021/09/26 21:08:10;;;;;;;;;;;21.50;49.60;;;;;;8369366;28;19912;-49
2021/09/26 21:12:10;;;;;;;;;;;21.50;49.60;;;;;;8368337;28;19967;-50
2021/09/26 21:16:11;;;;;;;;;;;21.50;49.60;;;;;;8367657;28;19913;-49
2021/09/26 21:20:12;;;;;;;;;;;21.50;49.60;;;;;;8367975;28;19924;-49
2021/09/26 21:24:12;;;;;;;;;;;21.50;49.60;;;;;;8367890;28;19994;-51
2021/09/26 21:28:13;;;;;;;;;;;21.50;49.60;;;;;;8368126;28;20003;-50
2021/09/26 21:32:13;;;;;;;;;;;21.50;49.60;;;;;;8367732;28;19925;-50
2021/09/26 21:36:14;;;;;;;;;;;21.50;49.60;;;;;;8367542;28;20329;-50
2021/09/26 21:40:15;;;;;;;;;;;21.50;49.60;;;;;;8367308;28;19963;-50
2021/09/26 21:44:16;;;;;;;;;;;21.50;49.60;;;;;;8367844;28;19913;-49
2021/09/26 21:48:16;;;;;;;;;;;21.50;49.60;;;;;;8367122;28;20285;-50
2021/09/26 21:52:17;;;;;;;;;;;21.50;49.60;;;;;;8366198;28;19928;-50
2021/09/26 21:56:18;;;;;;;;;;;21.40;49.60;;;;;;8366921;28;19975;-52
2021/09/26 22:00:26;;;;;;;;;;;21.50;49.60;;;;;;8368083;28;19971;-50
2021/09/26 22:04:27;;;;;;;;;;;21.50;49.60;;;;;;8366917;28;20262;-50
2021/09/26 22:08:27;;;;;;;;;;;21.50;49.60;;;;;;8366286;28;19917;-49
2021/09/26 22:12:28;;;;;;;;;;;21.40;49.60;;;;;;8366104;28;19983;-49
2021/09/26 22:16:30;;;;;;;;;;;21.50;49.60;;;;;;8365926;28;19928;-50
2021/09/26 22:20:31;;;;;;;;;;;21.40;49.60;;;;;;8366812;28;19913;-49
2021/09/26 22:24:32;;;;;;;;;;;21.40;49.60;;;;;;8366335;28;19917;-51
2021/09/26 22:28:33;;;;;;;;;;;21.40;49.60;;;;;;8365497;28;19924;-49
2021/09/26 22:32:33;;;;;;;;;;;21.40;49.60;;;;;;8365933;28;19978;-50
2021/09/26 22:36:34;;;;;;;;;;;21.40;49.60;;;;;;8366392;28;19913;-50
2021/09/26 22:40:35;;;;;;;;;;;21.40;49.60;;;;;;8365116;28;19924;-49
2021/09/26 22:44:35;;;;;;;;;;;21.40;49.60;;;;;;8365329;28;19917;-49
2021/09/26 22:48:36;;;;;;;;;;;21.40;49.60;;;;;;8365224;28;19916;-49
2021/09/26 22:52:37;;;;;;;;;;;21.40;49.70;;;;;;8364640;28;19967;-49
2021/09/26 22:56:37;;;;;;;;;;;21.40;49.70;;;;;;8365744;28;19913;-49
2021/09/26 23:00:42;;;;;;;;;;;21.40;49.70;;;;;;8364807;28;19920;-50
2021/09/26 23:04:42;;;;;;;;;;;21.40;49.70;;;;;;8363623;28;19917;-52
2021/09/26 23:08:43;;;;;;;;;;;21.40;49.60;;;;;;8364420;28;20373;-49
2021/09/26 23:12:44;;;;;;;;;;;21.40;49.60;;;;;;8365456;28;19921;-50
2021/09/26 23:16:44;;;;;;;;;;;21.40;49.70;;;;;;8364064;28;19917;-52
2021/09/26 23:20:46;;;;;;;;;;;21.40;49.70;;;;;;8364624;28;19917;-49
2021/09/26 23:24:46;;;;;;;;;;;21.40;49.70;;;;;;8364352;28;19975;-50